Ketron Island, Washington
Current Conditions -  °F | °C
As of 8:28 AM on Sunday 25 Jan 2015 (Local Time) from KTCM Reporting Station
Haze Haze  
Wind Chill: 50°   Ceiling: 200
Heat Index: 50°   Visibility: 5mi
Dew Point: 50°   Wind: 3mph
Humidity: 100%   Direction: 60°ENE
Pressure: 30.18"   Gusts: NA
Location:  47.1696°N, 122.593°W
Report Text: KTCM 251628Z AUTO 06003KT 5SM BR OVC002 10/10 A3018 RMK AO2 VIS 3/4 RWY34 $
Loading
Personal Weather Stations






























Interactive Weather Map New forecast layout! Learn more

10-Day Weather Forecast

Advertisements
Track Severe Weather on mobile